sensor_id;sensor_type;location;lat;lon;timestamp;temperature;humidity
3940;DHT22;1984;48.312;9.244;2023-02-04T00:01:18;4.10;99.90
3940;DHT22;1984;48.312;9.244;2023-02-04T00:03:43;4.10;99.90
3940;DHT22;1984;48.312;9.244;2023-02-04T00:06:09;4.20;99.90
3940;DHT22;1984;48.312;9.244;2023-02-04T00:08:34;4.10;99.90
3940;DHT22;1984;48.312;9.244;2023-02-04T00:11:02;4.20;99.90
3940;DHT22;1984;48.312;9.244;2023-02-04T00:13:27;4.20;99.90
3940;DHT22;1984;48.312;9.244;2023-02-04T00:15:53;4.20;99.90
3940;DHT22;1984;48.312;9.244;2023-02-04T00:18:18;4.20;99.90
3940;DHT22;1984;48.312;9.244;2023-02-04T00:20:44;4.20;99.90
3940;DHT22;1984;48.312;9.244;2023-02-04T00:23:09;4.20;99.90
3940;DHT22;1984;48.312;9.244;2023-02-04T00:25:35;4.30;99.90
3940;DHT22;1984;48.312;9.244;2023-02-04T00:28:00;4.30;99.90
3940;DHT22;1984;48.312;9.244;2023-02-04T00:30:26;4.30;99.90
3940;DHT22;1984;48.312;9.244;2023-02-04T00:32:52;4.30;99.90
3940;DHT22;1984;48.312;9.244;2023-02-04T00:35:19;4.20;99.90
3940;DHT22;1984;48.312;9.244;2023-02-04T00:37:45;4.20;99.90
3940;DHT22;1984;48.312;9.244;2023-02-04T00:40:11;4.30;99.90
3940;DHT22;1984;48.312;9.244;2023-02-04T00:42:36;4.30;99.90
3940;DHT22;1984;48.312;9.244;2023-02-04T00:45:02;4.20;99.90
3940;DHT22;1984;48.312;9.244;2023-02-04T00:47:28;4.20;99.90
3940;DHT22;1984;48.312;9.244;2023-02-04T00:49:54;4.20;99.90
3940;DHT22;1984;48.312;9.244;2023-02-04T00:52:19;4.30;99.90
3940;DHT22;1984;48.312;9.244;2023-02-04T00:54:44;4.20;99.90
3940;DHT22;1984;48.312;9.244;2023-02-04T00:57:10;4.20;99.90
3940;DHT22;1984;48.312;9.244;2023-02-04T00:59:35;4.30;99.90
3940;DHT22;1984;48.312;9.244;2023-02-04T01:02:01;4.30;99.90
3940;DHT22;1984;48.312;9.244;2023-02-04T01:04:26;4.30;99.90
3940;DHT22;1984;48.312;9.244;2023-02-04T01:06:53;4.30;99.90
3940;DHT22;1984;48.312;9.244;2023-02-04T01:09:19;4.30;99.90
3940;DHT22;1984;48.312;9.244;2023-02-04T01:11:45;4.30;99.90
3940;DHT22;1984;48.312;9.244;2023-02-04T01:14:11;4.40;99.90
3940;DHT22;1984;48.312;9.244;2023-02-04T01:16:36;4.40;99.90
3940;DHT22;1984;48.312;9.244;2023-02-04T01:19:02;4.40;99.90
3940;DHT22;1984;48.312;9.244;2023-02-04T01:21:27;4.40;99.90
3940;DHT22;1984;48.312;9.244;2023-02-04T01:23:53;4.40;99.90
3940;DHT22;1984;48.312;9.244;2023-02-04T01:26:19;4.40;99.90
3940;DHT22;1984;48.312;9.244;2023-02-04T01:28:45;4.50;99.90
3940;DHT22;1984;48.312;9.244;2023-02-04T01:31:12;4.50;99.90
3940;DHT22;1984;48.312;9.244;2023-02-04T01:33:38;4.50;99.90
3940;DHT22;1984;48.312;9.244;2023-02-04T01:36:04;4.60;99.90
3940;DHT22;1984;48.312;9.244;2023-02-04T01:38:29;4.50;99.90
3940;DHT22;1984;48.312;9.244;2023-02-04T01:40:55;4.60;99.90
3940;DHT22;1984;48.312;9.244;2023-02-04T01:43:21;4.50;99.90
3940;DHT22;1984;48.312;9.244;2023-02-04T01:45:48;4.60;99.90
3940;DHT22;1984;48.312;9.244;2023-02-04T01:48:14;4.60;99.90
3940;DHT22;1984;48.312;9.244;2023-02-04T01:51:04;4.50;99.90
3940;DHT22;1984;48.312;9.244;2023-02-04T01:53:31;4.50;99.90
3940;DHT22;1984;48.312;9.244;2023-02-04T01:55:57;4.60;99.90
3940;DHT22;1984;48.312;9.244;2023-02-04T01:58:22;4.50;99.90
3940;DHT22;1984;48.312;9.244;2023-02-04T02:00:48;4.60;99.90
3940;DHT22;1984;48.312;9.244;2023-02-04T02:03:13;4.50;99.90
3940;DHT22;1984;48.312;9.244;2023-02-04T02:05:47;4.60;99.90
3940;DHT22;1984;48.312;9.244;2023-02-04T02:08:14;4.60;99.90
3940;DHT22;1984;48.312;9.244;2023-02-04T02:10:43;4.60;99.90
3940;DHT22;1984;48.312;9.244;2023-02-04T02:13:12;4.60;99.90
3940;DHT22;1984;48.312;9.244;2023-02-04T02:15:38;4.60;99.90
3940;DHT22;1984;48.312;9.244;2023-02-04T02:18:04;4.70;99.90
3940;DHT22;1984;48.312;9.244;2023-02-04T02:20:30;4.70;99.90
3940;DHT22;1984;48.312;9.244;2023-02-04T02:25:43;4.70;99.90
3940;DHT22;1984;48.312;9.244;2023-02-04T02:28:12;4.80;99.90
3940;DHT22;1984;48.312;9.244;2023-02-04T02:30:39;4.80;99.90
3940;DHT22;1984;48.312;9.244;2023-02-04T02:33:05;4.80;99.90
3940;DHT22;1984;48.312;9.244;2023-02-04T02:35:32;4.80;99.90
3940;DHT22;1984;48.312;9.244;2023-02-04T02:37:58;4.80;99.90
3940;DHT22;1984;48.312;9.244;2023-02-04T02:40:23;4.70;99.90
3940;DHT22;1984;48.312;9.244;2023-02-04T02:42:51;4.70;99.90
3940;DHT22;1984;48.312;9.244;2023-02-04T02:45:26;4.70;99.90
3940;DHT22;1984;48.312;9.244;2023-02-04T02:47:53;4.80;99.90
3940;DHT22;1984;48.312;9.244;2023-02-04T02:50:22;4.70;99.90
3940;DHT22;1984;48.312;9.244;2023-02-04T02:52:49;4.80;99.90
3940;DHT22;1984;48.312;9.244;2023-02-04T02:55:17;4.80;99.90
3940;DHT22;1984;48.312;9.244;2023-02-04T02:57:47;4.90;99.90
3940;DHT22;1984;48.312;9.244;2023-02-04T03:00:18;4.90;99.90
3940;DHT22;1984;48.312;9.244;2023-02-04T03:02:53;4.90;99.90
3940;DHT22;1984;48.312;9.244;2023-02-04T03:05:20;4.90;99.90
3940;DHT22;1984;48.312;9.244;2023-02-04T03:07:46;4.90;99.90
3940;DHT22;1984;48.312;9.244;2023-02-04T03:10:11;4.90;99.90
3940;DHT22;1984;48.312;9.244;2023-02-04T03:12:37;4.90;99.90
3940;DHT22;1984;48.312;9.244;2023-02-04T03:15:03;4.90;99.90
3940;DHT22;1984;48.312;9.244;2023-02-04T03:17:30;4.90;99.90
3940;DHT22;1984;48.312;9.244;2023-02-04T03:19:56;4.90;99.90
3940;DHT22;1984;48.312;9.244;2023-02-04T03:22:22;5.00;99.90
3940;DHT22;1984;48.312;9.244;2023-02-04T03:24:48;5.00;99.90
3940;DHT22;1984;48.312;9.244;2023-02-04T03:27:14;5.00;99.90
3940;DHT22;1984;48.312;9.244;2023-02-04T03:29:43;5.00;99.90
3940;DHT22;1984;48.312;9.244;2023-02-04T03:32:09;5.00;99.90
3940;DHT22;1984;48.312;9.244;2023-02-04T03:34:35;5.00;99.90
3940;DHT22;1984;48.312;9.244;2023-02-04T03:37:00;5.00;99.90
3940;DHT22;1984;48.312;9.244;2023-02-04T03:39:26;5.00;99.90
3940;DHT22;1984;48.312;9.244;2023-02-04T03:41:51;5.00;99.90
3940;DHT22;1984;48.312;9.244;2023-02-04T03:44:17;5.00;99.90
3940;DHT22;1984;48.312;9.244;2023-02-04T03:46:43;5.00;99.90
3940;DHT22;1984;48.312;9.244;2023-02-04T03:49:09;5.10;99.90
3940;DHT22;1984;48.312;9.244;2023-02-04T03:51:34;5.10;99.90
3940;DHT22;1984;48.312;9.244;2023-02-04T03:54:00;5.10;99.90
3940;DHT22;1984;48.312;9.244;2023-02-04T03:56:25;5.10;99.90
3940;DHT22;1984;48.312;9.244;2023-02-04T03:58:51;5.10;99.90
3940;DHT22;1984;48.312;9.244;2023-02-04T04:01:16;5.00;99.90
3940;DHT22;1984;48.312;9.244;2023-02-04T04:03:42;5.00;99.90
3940;DHT22;1984;48.312;9.244;2023-02-04T04:06:07;5.10;99.90
3940;DHT22;1984;48.312;9.244;2023-02-04T04:08:35;5.00;99.90
3940;DHT22;1984;48.312;9.244;2023-02-04T04:11:01;4.90;99.90
3940;DHT22;1984;48.312;9.244;2023-02-04T04:13:26;4.90;99.90
3940;DHT22;1984;48.312;9.244;2023-02-04T04:15:52;4.90;99.90
3940;DHT22;1984;48.312;9.244;2023-02-04T04:18:17;4.90;99.90
3940;DHT22;1984;48.312;9.244;2023-02-04T04:20:43;4.90;99.90
3940;DHT22;1984;48.312;9.244;2023-02-04T04:23:08;4.90;99.90
3940;DHT22;1984;48.312;9.244;2023-02-04T04:25:34;4.80;99.90
3940;DHT22;1984;48.312;9.244;2023-02-04T04:27:59;4.80;99.90
3940;DHT22;1984;48.312;9.244;2023-02-04T04:30:25;4.80;99.90
3940;DHT22;1984;48.312;9.244;2023-02-04T04:32:50;4.80;99.90
3940;DHT22;1984;48.312;9.244;2023-02-04T04:35:16;4.90;99.90
3940;DHT22;1984;48.312;9.244;2023-02-04T04:37:41;4.90;99.90
3940;DHT22;1984;48.312;9.244;2023-02-04T04:40:10;4.90;99.90
3940;DHT22;1984;48.312;9.244;2023-02-04T04:42:35;4.90;99.90
3940;DHT22;1984;48.312;9.244;2023-02-04T04:45:02;4.90;99.90
3940;DHT22;1984;48.312;9.244;2023-02-04T04:47:28;4.90;99.90
3940;DHT22;1984;48.312;9.244;2023-02-04T04:49:53;4.80;99.90
3940;DHT22;1984;48.312;9.244;2023-02-04T04:52:19;4.90;99.90
3940;DHT22;1984;48.312;9.244;2023-02-04T04:54:44;4.80;99.90
3940;DHT22;1984;48.312;9.244;2023-02-04T04:57:10;4.80;99.90
3940;DHT22;1984;48.312;9.244;2023-02-04T04:59:35;4.80;99.90
3940;DHT22;1984;48.312;9.244;2023-02-04T05:02:01;4.80;99.90
3940;DHT22;1984;48.312;9.244;2023-02-04T05:04:26;4.90;99.90
3940;DHT22;1984;48.312;9.244;2023-02-04T05:06:52;4.80;99.90
3940;DHT22;1984;48.312;9.244;2023-02-04T05:09:17;4.80;99.90
3940;DHT22;1984;48.312;9.244;2023-02-04T05:11:42;4.80;99.90
3940;DHT22;1984;48.312;9.244;2023-02-04T05:14:08;4.80;99.90
3940;DHT22;1984;48.312;9.244;2023-02-04T05:16:33;4.80;99.90
3940;DHT22;1984;48.312;9.244;2023-02-04T05:18:59;4.70;99.90
3940;DHT22;1984;48.312;9.244;2023-02-04T05:21:24;4.60;99.90
3940;DHT22;1984;48.312;9.244;2023-02-04T05:23:50;4.50;99.90
3940;DHT22;1984;48.312;9.244;2023-02-04T05:26:15;4.50;99.90
3940;DHT22;1984;48.312;9.244;2023-02-04T05:28:41;4.40;99.90
3940;DHT22;1984;48.312;9.244;2023-02-04T05:31:07;4.40;99.90
3940;DHT22;1984;48.312;9.244;2023-02-04T05:33:32;4.40;99.90
3940;DHT22;1984;48.312;9.244;2023-02-04T05:35:58;4.40;99.90
3940;DHT22;1984;48.312;9.244;2023-02-04T05:38:23;4.40;99.90
3940;DHT22;1984;48.312;9.244;2023-02-04T05:40:48;4.40;99.90
3940;DHT22;1984;48.312;9.244;2023-02-04T05:43:14;4.30;99.90
3940;DHT22;1984;48.312;9.244;2023-02-04T05:45:40;4.40;99.90
3940;DHT22;1984;48.312;9.244;2023-02-04T05:48:05;4.40;99.90
3940;DHT22;1984;48.312;9.244;2023-02-04T05:50:31;4.40;99.90
3940;DHT22;1984;48.312;9.244;2023-02-04T05:52:56;4.30;99.90
3940;DHT22;1984;48.312;9.244;2023-02-04T05:55:21;4.30;99.90
3940;DHT22;1984;48.312;9.244;2023-02-04T05:57:47;4.30;99.90
3940;DHT22;1984;48.312;9.244;2023-02-04T06:00:13;4.30;99.90
3940;DHT22;1984;48.312;9.244;2023-02-04T06:02:38;4.30;99.90
3940;DHT22;1984;48.312;9.244;2023-02-04T06:05:04;4.30;99.90
3940;DHT22;1984;48.312;9.244;2023-02-04T06:07:30;4.30;99.90
3940;DHT22;1984;48.312;9.244;2023-02-04T06:09:55;4.30;99.90
3940;DHT22;1984;48.312;9.244;2023-02-04T06:12:21;4.30;99.90
3940;DHT22;1984;48.312;9.244;2023-02-04T06:14:46;4.30;99.90
3940;DHT22;1984;48.312;9.244;2023-02-04T06:17:12;4.30;99.90
3940;DHT22;1984;48.312;9.244;2023-02-04T06:19:37;4.30;99.90
3940;DHT22;1984;48.312;9.244;2023-02-04T06:22:03;4.30;99.90
3940;DHT22;1984;48.312;9.244;2023-02-04T06:24:28;4.30;99.90
3940;DHT22;1984;48.312;9.244;2023-02-04T06:26:54;4.40;99.90
3940;DHT22;1984;48.312;9.244;2023-02-04T06:29:19;4.30;99.90
3940;DHT22;1984;48.312;9.244;2023-02-04T06:31:45;4.40;99.90
3940;DHT22;1984;48.312;9.244;2023-02-04T06:34:11;4.40;99.90
3940;DHT22;1984;48.312;9.244;2023-02-04T06:36:36;4.40;99.90
3940;DHT22;1984;48.312;9.244;2023-02-04T06:39:02;4.40;99.90
3940;DHT22;1984;48.312;9.244;2023-02-04T06:41:27;4.40;99.90
3940;DHT22;1984;48.312;9.244;2023-02-04T06:43:53;4.40;99.90
3940;DHT22;1984;48.312;9.244;2023-02-04T06:46:18;4.30;99.90
3940;DHT22;1984;48.312;9.244;2023-02-04T06:48:44;4.30;99.90
3940;DHT22;1984;48.312;9.244;2023-02-04T06:51:09;4.30;99.90
3940;DHT22;1984;48.312;9.244;2023-02-04T06:53:35;4.40;99.90
3940;DHT22;1984;48.312;9.244;2023-02-04T06:56:00;4.30;99.90
3940;DHT22;1984;48.312;9.244;2023-02-04T06:58:26;4.30;99.90
3940;DHT22;1984;48.312;9.244;2023-02-04T07:00:51;4.30;99.90
3940;DHT22;1984;48.312;9.244;2023-02-04T07:03:17;4.20;99.90
3940;DHT22;1984;48.312;9.244;2023-02-04T07:05:42;4.20;99.90
3940;DHT22;1984;48.312;9.244;2023-02-04T07:08:08;4.20;99.90
3940;DHT22;1984;48.312;9.244;2023-02-04T07:10:33;4.20;99.90
3940;DHT22;1984;48.312;9.244;2023-02-04T07:12:59;4.20;99.90
3940;DHT22;1984;48.312;9.244;2023-02-04T07:15:24;4.20;99.90
3940;DHT22;1984;48.312;9.244;2023-02-04T07:17:50;4.20;99.90
3940;DHT22;1984;48.312;9.244;2023-02-04T07:20:16;4.10;99.90
3940;DHT22;1984;48.312;9.244;2023-02-04T07:22:42;4.10;99.90
3940;DHT22;1984;48.312;9.244;2023-02-04T07:25:08;4.10;99.90
3940;DHT22;1984;48.312;9.244;2023-02-04T07:27:34;4.10;99.90
3940;DHT22;1984;48.312;9.244;2023-02-04T07:30:00;4.10;99.90
3940;DHT22;1984;48.312;9.244;2023-02-04T07:32:25;4.10;99.90
3940;DHT22;1984;48.312;9.244;2023-02-04T07:34:52;4.20;99.90
3940;DHT22;1984;48.312;9.244;2023-02-04T07:37:18;4.20;99.90
3940;DHT22;1984;48.312;9.244;2023-02-04T07:39:44;4.30;99.90
3940;DHT22;1984;48.312;9.244;2023-02-04T07:42:10;4.40;99.90
3940;DHT22;1984;48.312;9.244;2023-02-04T07:44:35;4.40;99.90
3940;DHT22;1984;48.312;9.244;2023-02-04T07:47:02;4.50;99.90
3940;DHT22;1984;48.312;9.244;2023-02-04T07:49:27;4.50;99.90
3940;DHT22;1984;48.312;9.244;2023-02-04T07:51:53;4.50;99.90
3940;DHT22;1984;48.312;9.244;2023-02-04T07:54:18;4.50;99.90
3940;DHT22;1984;48.312;9.244;2023-02-04T07:56:44;4.50;99.90
3940;DHT22;1984;48.312;9.244;2023-02-04T07:59:09;4.50;99.90
3940;DHT22;1984;48.312;9.244;2023-02-04T08:01:35;4.50;99.90
3940;DHT22;1984;48.312;9.244;2023-02-04T08:04:01;4.50;99.90
3940;DHT22;1984;48.312;9.244;2023-02-04T08:06:26;4.40;99.90
3940;DHT22;1984;48.312;9.244;2023-02-04T08:08:52;4.40;99.90
3940;DHT22;1984;48.312;9.244;2023-02-04T08:11:17;4.40;99.90
3940;DHT22;1984;48.312;9.244;2023-02-04T08:13:43;4.40;99.90
3940;DHT22;1984;48.312;9.244;2023-02-04T08:16:08;4.50;99.90
3940;DHT22;1984;48.312;9.244;2023-02-04T08:18:34;4.50;99.90
3940;DHT22;1984;48.312;9.244;2023-02-04T08:20:59;4.50;99.90
3940;DHT22;1984;48.312;9.244;2023-02-04T08:23:25;4.50;99.90
3940;DHT22;1984;48.312;9.244;2023-02-04T08:25:51;4.60;99.90
3940;DHT22;1984;48.312;9.244;2023-02-04T08:28:17;4.60;99.90
3940;DHT22;1984;48.312;9.244;2023-02-04T08:30:42;4.60;99.90
3940;DHT22;1984;48.312;9.244;2023-02-04T08:33:08;4.60;99.90
3940;DHT22;1984;48.312;9.244;2023-02-04T08:35:33;4.60;99.90
3940;DHT22;1984;48.312;9.244;2023-02-04T08:37:59;4.70;99.90
3940;DHT22;1984;48.312;9.244;2023-02-04T08:40:24;4.70;99.90
3940;DHT22;1984;48.312;9.244;2023-02-04T08:42:50;4.80;99.90
3940;DHT22;1984;48.312;9.244;2023-02-04T08:45:15;4.80;99.90
3940;DHT22;1984;48.312;9.244;2023-02-04T08:47:41;4.90;99.90
3940;DHT22;1984;48.312;9.244;2023-02-04T08:50:08;4.90;99.90
3940;DHT22;1984;48.312;9.244;2023-02-04T08:52:34;4.90;99.90
3940;DHT22;1984;48.312;9.244;2023-02-04T08:55:01;5.00;99.90
3940;DHT22;1984;48.312;9.244;2023-02-04T08:57:26;5.00;99.90
3940;DHT22;1984;48.312;9.244;2023-02-04T08:59:52;4.90;99.90
3940;DHT22;1984;48.312;9.244;2023-02-04T09:02:17;4.90;99.90
3940;DHT22;1984;48.312;9.244;2023-02-04T09:04:43;4.90;99.90
3940;DHT22;1984;48.312;9.244;2023-02-04T09:07:08;4.80;99.90
3940;DHT22;1984;48.312;9.244;2023-02-04T09:09:34;4.80;99.90
3940;DHT22;1984;48.312;9.244;2023-02-04T09:11:59;4.80;99.90
3940;DHT22;1984;48.312;9.244;2023-02-04T09:14:26;4.80;99.90
3940;DHT22;1984;48.312;9.244;2023-02-04T09:16:51;4.80;99.90
3940;DHT22;1984;48.312;9.244;2023-02-04T09:19:17;4.80;99.90
3940;DHT22;1984;48.312;9.244;2023-02-04T09:21:48;4.80;99.90
3940;DHT22;1984;48.312;9.244;2023-02-04T09:24:13;4.80;99.90
3940;DHT22;1984;48.312;9.244;2023-02-04T09:26:39;4.80;99.90
3940;DHT22;1984;48.312;9.244;2023-02-04T09:29:04;4.80;99.90
3940;DHT22;1984;48.312;9.244;2023-02-04T09:31:30;4.80;99.90
3940;DHT22;1984;48.312;9.244;2023-02-04T09:33:55;4.80;99.90
3940;DHT22;1984;48.312;9.244;2023-02-04T09:36:21;4.90;99.90
3940;DHT22;1984;48.312;9.244;2023-02-04T09:38:46;4.90;99.90
3940;DHT22;1984;48.312;9.244;2023-02-04T09:41:12;4.90;99.90
3940;DHT22;1984;48.312;9.244;2023-02-04T09:43:41;4.90;99.90
3940;DHT22;1984;48.312;9.244;2023-02-04T09:46:19;4.90;99.90
3940;DHT22;1984;48.312;9.244;2023-02-04T09:48:45;5.00;99.90
3940;DHT22;1984;48.312;9.244;2023-02-04T09:51:21;5.10;99.90
3940;DHT22;1984;48.312;9.244;2023-02-04T09:53:48;5.20;99.90
3940;DHT22;1984;48.312;9.244;2023-02-04T09:56:14;5.30;99.90
3940;DHT22;1984;48.312;9.244;2023-02-04T09:58:41;5.40;99.90
3940;DHT22;1984;48.312;9.244;2023-02-04T10:01:14;5.50;99.90
3940;DHT22;1984;48.312;9.244;2023-02-04T10:03:41;5.70;99.90
3940;DHT22;1984;48.312;9.244;2023-02-04T10:06:14;5.90;99.90
3940;DHT22;1984;48.312;9.244;2023-02-04T10:08:41;6.10;99.90
3940;DHT22;1984;48.312;9.244;2023-02-04T10:11:07;6.20;99.90
3940;DHT22;1984;48.312;9.244;2023-02-04T10:13:47;6.30;99.90
3940;DHT22;1984;48.312;9.244;2023-02-04T10:16:21;6.40;99.90
3940;DHT22;1984;48.312;9.244;2023-02-04T10:50:29;6.30;99.90
3940;DHT22;1984;48.312;9.244;2023-02-04T10:52:57;6.40;99.90
3940;DHT22;1984;48.312;9.244;2023-02-04T10:55:46;6.50;99.90
3940;DHT22;1984;48.312;9.244;2023-02-04T10:58:15;7.40;99.90
3940;DHT22;1984;48.312;9.244;2023-02-04T11:00:41;8.00;99.90
3940;DHT22;1984;48.312;9.244;2023-02-04T11:05:42;8.60;99.90
3940;DHT22;1984;48.312;9.244;2023-02-04T11:10:48;7.80;99.90
3940;DHT22;1984;48.312;9.244;2023-02-04T11:13:38;7.50;99.90
3940;DHT22;1984;48.312;9.244;2023-02-04T11:19:08;7.00;99.90
3940;DHT22;1984;48.312;9.244;2023-02-04T11:27:04;6.60;99.90
3940;DHT22;1984;48.312;9.244;2023-02-04T11:29:32;6.50;99.90
3940;DHT22;1984;48.312;9.244;2023-02-04T11:32:34;6.40;99.90
3940;DHT22;1984;48.312;9.244;2023-02-04T11:37:38;6.20;99.90
3940;DHT22;1984;48.312;9.244;2023-02-04T11:40:28;6.20;99.90
3940;DHT22;1984;48.312;9.244;2023-02-04T11:43:09;6.30;99.90
3940;DHT22;1984;48.312;9.244;2023-02-04T11:45:36;6.30;99.90
3940;DHT22;1984;48.312;9.244;2023-02-04T11:48:13;6.40;99.90
3940;DHT22;1984;48.312;9.244;2023-02-04T11:50:39;6.50;99.90
3940;DHT22;1984;48.312;9.244;2023-02-04T11:53:09;6.70;99.90
3940;DHT22;1984;48.312;9.244;2023-02-04T11:55:45;6.90;99.90
3940;DHT22;1984;48.312;9.244;2023-02-04T11:58:14;7.20;99.90
3940;DHT22;1984;48.312;9.244;2023-02-04T12:00:41;7.40;99.90
3940;DHT22;1984;48.312;9.244;2023-02-04T12:03:25;7.70;99.90
3940;DHT22;1984;48.312;9.244;2023-02-04T12:05:52;7.90;99.90
3940;DHT22;1984;48.312;9.244;2023-02-04T12:13:28;8.20;99.90
3940;DHT22;1984;48.312;9.244;2023-02-04T12:16:05;8.10;99.90
3940;DHT22;1984;48.312;9.244;2023-02-04T12:18:33;8.00;99.90
3940;DHT22;1984;48.312;9.244;2023-02-04T12:21:00;7.80;99.90
3940;DHT22;1984;48.312;9.244;2023-02-04T12:23:27;7.70;99.90
3940;DHT22;1984;48.312;9.244;2023-02-04T12:25:54;7.70;99.90
3940;DHT22;1984;48.312;9.244;2023-02-04T12:28:20;7.60;99.90
3940;DHT22;1984;48.312;9.244;2023-02-04T12:30:46;7.70;99.90
3940;DHT22;1984;48.312;9.244;2023-02-04T12:33:12;7.80;99.90
3940;DHT22;1984;48.312;9.244;2023-02-04T12:35:38;7.90;99.90
3940;DHT22;1984;48.312;9.244;2023-02-04T12:38:03;8.00;99.90
3940;DHT22;1984;48.312;9.244;2023-02-04T12:40:29;8.20;99.90
3940;DHT22;1984;48.312;9.244;2023-02-04T12:42:55;8.30;99.90
3940;DHT22;1984;48.312;9.244;2023-02-04T12:45:20;8.10;99.90
3940;DHT22;1984;48.312;9.244;2023-02-04T12:47:46;7.80;99.90
3940;DHT22;1984;48.312;9.244;2023-02-04T12:50:16;7.60;99.90
3940;DHT22;1984;48.312;9.244;2023-02-04T12:52:53;7.30;99.90
3940;DHT22;1984;48.312;9.244;2023-02-04T12:55:21;7.10;99.90
3940;DHT22;1984;48.312;9.244;2023-02-04T12:57:47;7.00;99.90
3940;DHT22;1984;48.312;9.244;2023-02-04T13:00:14;7.00;99.90
3940;DHT22;1984;48.312;9.244;2023-02-04T13:02:40;6.90;99.90
3940;DHT22;1984;48.312;9.244;2023-02-04T13:05:06;6.80;99.90
3940;DHT22;1984;48.312;9.244;2023-02-04T13:07:31;6.80;99.90
3940;DHT22;1984;48.312;9.244;2023-02-04T13:09:58;6.70;99.90
3940;DHT22;1984;48.312;9.244;2023-02-04T13:12:23;6.50;99.90
3940;DHT22;1984;48.312;9.244;2023-02-04T13:14:49;6.40;99.90
3940;DHT22;1984;48.312;9.244;2023-02-04T13:17:14;6.40;99.90
3940;DHT22;1984;48.312;9.244;2023-02-04T13:19:40;6.40;99.90
3940;DHT22;1984;48.312;9.244;2023-02-04T13:22:05;6.40;99.90
3940;DHT22;1984;48.312;9.244;2023-02-04T13:24:31;6.50;99.90
3940;DHT22;1984;48.312;9.244;2023-02-04T13:26:56;6.40;99.90
3940;DHT22;1984;48.312;9.244;2023-02-04T13:29:22;6.30;99.90
3940;DHT22;1984;48.312;9.244;2023-02-04T13:31:48;6.30;99.90
3940;DHT22;1984;48.312;9.244;2023-02-04T13:34:13;6.20;99.90
3940;DHT22;1984;48.312;9.244;2023-02-04T13:36:39;6.30;99.90
3940;DHT22;1984;48.312;9.244;2023-02-04T13:39:05;6.30;99.90
3940;DHT22;1984;48.312;9.244;2023-02-04T13:41:30;6.20;99.90
3940;DHT22;1984;48.312;9.244;2023-02-04T13:43:56;6.20;99.90
3940;DHT22;1984;48.312;9.244;2023-02-04T13:46:22;6.20;99.90
3940;DHT22;1984;48.312;9.244;2023-02-04T13:48:48;6.10;99.90
3940;DHT22;1984;48.312;9.244;2023-02-04T13:51:15;6.00;99.90
3940;DHT22;1984;48.312;9.244;2023-02-04T13:53:40;5.90;99.90
3940;DHT22;1984;48.312;9.244;2023-02-04T13:56:06;5.90;99.90
3940;DHT22;1984;48.312;9.244;2023-02-04T13:58:32;5.80;99.90
3940;DHT22;1984;48.312;9.244;2023-02-04T14:00:58;5.80;99.90
3940;DHT22;1984;48.312;9.244;2023-02-04T14:03:24;5.80;99.90
3940;DHT22;1984;48.312;9.244;2023-02-04T14:05:50;5.80;99.90
3940;DHT22;1984;48.312;9.244;2023-02-04T14:08:16;5.80;99.90
3940;DHT22;1984;48.312;9.244;2023-02-04T14:10:42;5.80;99.90
3940;DHT22;1984;48.312;9.244;2023-02-04T14:13:07;5.80;99.90
3940;DHT22;1984;48.312;9.244;2023-02-04T14:15:33;5.80;99.90
3940;DHT22;1984;48.312;9.244;2023-02-04T14:17:59;5.70;99.90
3940;DHT22;1984;48.312;9.244;2023-02-04T14:20:25;5.80;99.90
3940;DHT22;1984;48.312;9.244;2023-02-04T14:22:51;5.80;99.90
3940;DHT22;1984;48.312;9.244;2023-02-04T14:25:16;5.80;99.90
3940;DHT22;1984;48.312;9.244;2023-02-04T14:27:42;5.70;99.90
3940;DHT22;1984;48.312;9.244;2023-02-04T14:30:19;5.70;99.90
3940;DHT22;1984;48.312;9.244;2023-02-04T14:32:45;5.60;99.90
3940;DHT22;1984;48.312;9.244;2023-02-04T14:35:11;5.60;99.90
3940;DHT22;1984;48.312;9.244;2023-02-04T14:37:37;5.50;99.90
3940;DHT22;1984;48.312;9.244;2023-02-04T14:40:03;5.50;99.90
3940;DHT22;1984;48.312;9.244;2023-02-04T14:42:29;5.50;99.90
3940;DHT22;1984;48.312;9.244;2023-02-04T14:44:54;5.50;99.90
3940;DHT22;1984;48.312;9.244;2023-02-04T14:47:20;5.40;99.90
3940;DHT22;1984;48.312;9.244;2023-02-04T14:49:45;5.40;99.90
3940;DHT22;1984;48.312;9.244;2023-02-04T14:52:11;5.40;99.90
3940;DHT22;1984;48.312;9.244;2023-02-04T14:54:37;5.40;99.90
3940;DHT22;1984;48.312;9.244;2023-02-04T14:57:03;5.40;99.90
3940;DHT22;1984;48.312;9.244;2023-02-04T14:59:28;5.40;99.90
3940;DHT22;1984;48.312;9.244;2023-02-04T15:01:54;5.40;99.90
3940;DHT22;1984;48.312;9.244;2023-02-04T15:04:20;5.40;99.90
3940;DHT22;1984;48.312;9.244;2023-02-04T15:06:45;5.50;99.90
3940;DHT22;1984;48.312;9.244;2023-02-04T15:09:11;5.40;99.90
3940;DHT22;1984;48.312;9.244;2023-02-04T15:11:37;5.50;99.90
3940;DHT22;1984;48.312;9.244;2023-02-04T15:14:03;5.50;99.90
3940;DHT22;1984;48.312;9.244;2023-02-04T15:16:28;5.50;99.90
3940;DHT22;1984;48.312;9.244;2023-02-04T15:18:54;5.50;99.90
3940;DHT22;1984;48.312;9.244;2023-02-04T15:21:19;5.40;99.90
3940;DHT22;1984;48.312;9.244;2023-02-04T15:23:45;5.40;99.90
3940;DHT22;1984;48.312;9.244;2023-02-04T15:26:12;5.50;99.90
3940;DHT22;1984;48.312;9.244;2023-02-04T15:28:38;5.50;99.90
3940;DHT22;1984;48.312;9.244;2023-02-04T15:31:03;5.40;99.90
3940;DHT22;1984;48.312;9.244;2023-02-04T15:33:29;5.40;99.90
3940;DHT22;1984;48.312;9.244;2023-02-04T15:35:55;5.40;99.90
3940;DHT22;1984;48.312;9.244;2023-02-04T15:38:20;5.50;99.90
3940;DHT22;1984;48.312;9.244;2023-02-04T15:40:46;5.50;99.90
3940;DHT22;1984;48.312;9.244;2023-02-04T15:43:12;5.50;99.90
3940;DHT22;1984;48.312;9.244;2023-02-04T15:45:37;5.40;99.90
3940;DHT22;1984;48.312;9.244;2023-02-04T15:48:06;5.30;99.90
3940;DHT22;1984;48.312;9.244;2023-02-04T15:50:32;5.20;99.90
3940;DHT22;1984;48.312;9.244;2023-02-04T15:52:58;5.10;99.90
3940;DHT22;1984;48.312;9.244;2023-02-04T15:55:23;5.00;99.90
3940;DHT22;1984;48.312;9.244;2023-02-04T15:57:49;5.00;99.90
3940;DHT22;1984;48.312;9.244;2023-02-04T16:00:15;5.10;99.90
3940;DHT22;1984;48.312;9.244;2023-02-04T16:02:40;5.00;99.90
3940;DHT22;1984;48.312;9.244;2023-02-04T16:05:06;5.00;99.90
3940;DHT22;1984;48.312;9.244;2023-02-04T16:07:32;5.00;99.90
3940;DHT22;1984;48.312;9.244;2023-02-04T16:09:57;4.90;99.90
3940;DHT22;1984;48.312;9.244;2023-02-04T16:12:23;4.90;99.90
3940;DHT22;1984;48.312;9.244;2023-02-04T16:14:48;4.90;99.90
3940;DHT22;1984;48.312;9.244;2023-02-04T16:17:14;4.80;99.90
3940;DHT22;1984;48.312;9.244;2023-02-04T16:19:40;4.80;99.90
3940;DHT22;1984;48.312;9.244;2023-02-04T16:22:05;4.70;99.90
3940;DHT22;1984;48.312;9.244;2023-02-04T16:24:32;4.70;99.90
3940;DHT22;1984;48.312;9.244;2023-02-04T16:26:57;4.60;99.90
3940;DHT22;1984;48.312;9.244;2023-02-04T16:29:23;4.40;99.90
3940;DHT22;1984;48.312;9.244;2023-02-04T16:31:48;4.30;99.90
3940;DHT22;1984;48.312;9.244;2023-02-04T16:34:14;4.30;99.90
3940;DHT22;1984;48.312;9.244;2023-02-04T16:36:40;4.20;99.90
3940;DHT22;1984;48.312;9.244;2023-02-04T16:39:05;4.10;99.90
3940;DHT22;1984;48.312;9.244;2023-02-04T16:41:31;4.00;99.90
3940;DHT22;1984;48.312;9.244;2023-02-04T16:43:56;4.00;99.90
3940;DHT22;1984;48.312;9.244;2023-02-04T16:46:23;3.90;99.90
3940;DHT22;1984;48.312;9.244;2023-02-04T16:48:48;3.90;99.90
3940;DHT22;1984;48.312;9.244;2023-02-04T16:51:14;3.80;99.90
3940;DHT22;1984;48.312;9.244;2023-02-04T16:53:39;3.80;99.90
3940;DHT22;1984;48.312;9.244;2023-02-04T16:56:06;3.70;99.90
3940;DHT22;1984;48.312;9.244;2023-02-04T16:58:31;3.60;99.90
3940;DHT22;1984;48.312;9.244;2023-02-04T17:00:57;3.60;99.90
3940;DHT22;1984;48.312;9.244;2023-02-04T17:03:24;3.60;99.90
3940;DHT22;1984;48.312;9.244;2023-02-04T17:05:49;3.60;99.90
3940;DHT22;1984;48.312;9.244;2023-02-04T17:08:15;3.50;99.90